x

Newport, Or (nwpo3) Weather Station

11:00pm - Mon 21st Jul 2014 All times are PDT. -7 hours from GMT.

  • Wind
    9mph, 10mph gusts
  • Air Temp 54°f
  • Sea Pressure 1017.9mb
  • Newport, Or
  • Newport, Or

More Historic Weather Station data

Upgrade to MSW Pro to gain access to the past 30 days of data for over 8000 Wavebouys and Weather Stations around the globe.

Join Pro

Comparision Forecast

View Surf forecast
   
Mon 07/21 11:00pm 9 10 mph 1017.9mb 54f
10:00pm 9 10 mph 1017.6mb 54f
9:00pm 7 8 mph 1016.9mb 55f
8:00pm 5
mph
1016.6mb 56f
7:00pm 5 6 mph 1016.6mb 55f
6:00pm 9 10 mph 1016.4mb 55f
5:00pm 13 15 mph 1016.2mb 55f
4:00pm 15 16 mph 1016.4mb 55f
3:00pm 15 17 mph 1016.4mb 55f
2:00pm 14 15 mph 1016.5mb 54f
1:00pm 10 11 mph 1016.6mb 54f
12:00pm 9 11 mph 1016.9mb 53f
11:00am 10 11 mph 1017mb 53f
10:00am 9
mph
1017mb 53f
9:00am 7 8 mph 1017.2mb 51f
8:00am 2
mph
1017.3mb 52f
7:00am 6 7 mph 1016.9mb 53f
6:00am 6
mph
1016.6mb 52f
5:00am 6 7 mph 1016.4mb 53f
4:00am 3
mph
1016.3mb 53f
3:00am 2 3 mph 1016.2mb 54f
2:00am  -  1 mph 1016.4mb 53f
1:00am 5 6 mph 1016.3mb 52f
12:00am 6
mph
1016.5mb 52f
Sun 07/20 11:00pm 7 8 mph 1016.3mb 53f
10:00pm 6 7 mph 1016.4mb 53f
9:00pm 11 14 mph 1015.9mb 55f
8:00pm 13 15 mph 1015.9mb 55f
7:00pm 8 9 mph 1015.8mb 53f
6:00pm 14 15 mph 1015.5mb 55f
5:00pm 11 14 mph 1015.7mb 55f
4:00pm 11 14 mph 1016.1mb 56f
3:00pm 10 11 mph 1016.4mb 56f
2:00pm 11 13 mph 1016.6mb 57f
1:00pm 10 11 mph 1016.7mb 56f
12:00pm 7 8 mph 1016.8mb 56f
11:00am 6 8 mph 1016.8mb 56f
10:00am 6 7 mph 1016.7mb 53f
9:00am 3
mph
1016.4mb 55f
8:00am 3
mph
1016.5mb 53f
7:00am  -  1 mph 1016.3mb 53f
6:00am 2 3 mph 1016.1mb 53f
5:00am 5
mph
1015.9mb 53f
4:00am 3
mph
1015.8mb 54f
3:00am 6
mph
1015.9mb 58f
2:00am 6 7 mph 1016.4mb 56f
1:00am 2
mph
1016.5mb 56f
12:00am  -  1 mph 1016.7mb 55f
Sat 07/19 11:00pm 3 5 mph 1017mb 56f
10:00pm 7
mph
1017.3mb 55f
9:00pm 6 7 mph 1017.1mb 56f
8:00pm 6 7 mph 1017.5mb 55f
7:00pm 13 14 mph 1017.6mb 56f
6:00pm 9 11 mph 1017.9mb 57f
5:00pm 9 10 mph 1018.4mb 55f
4:00pm 13 15 mph 1018.8mb 55f
3:00pm 11 13 mph 1019mb 56f
2:00pm 13 14 mph 1019.3mb 54f
1:00pm 8 11 mph 1019.8mb 54f
12:00pm 11 14 mph 1019.9mb 54f
11:00am 14 16 mph 1020.1mb 55f
10:00am 10 11 mph 1019.7mb 55f
9:00am 8
mph
1020.1mb 54f
8:00am 3
mph
1020mb 53f
7:00am 5 6 mph 1019.9mb 55f
6:00am 6
mph
1019.7mb 54f
5:00am 2 3 mph 1019.1mb 53f
4:00am 9 10 mph 1019.4mb 53f
3:00am 11 13 mph 1019.5mb 53f
2:00am 11 13 mph 1019.6mb 54f
1:00am 11 13 mph 1019.8mb 54f
12:00am 15 17 mph 1020mb 54f
Fri 07/18 11:00pm 15 16 mph 1019.9mb 56f
10:00pm 16 20 mph 1019.8mb 56f
9:00pm 21 22 mph 1019.4mb 54f
8:00pm 22 23 mph 1019.4mb 54f
7:00pm 24 25 mph 1019.2mb 55f
6:00pm 24 26 mph 1019.4mb 55f
5:00pm 22 24 mph 1020.1mb 54f
4:00pm 22 23 mph 1020.5mb 54f
3:00pm 15 17 mph 1020.9mb 53f
2:00pm 15 17 mph 1020.9mb 54f
1:00pm 18 21 mph 1020.5mb 54f
12:00pm 18 21 mph 1020.4mb 56f
11:00am 18 22 mph 1020.7mb 55f
10:00am 17 21 mph 1020.6mb 54f
9:00am 14 16 mph 1020.4mb 53f
8:00am 6 8 mph 1020mb 54f